KSAC/SAC METAR and TAF weather

Enter ICAO airport designator
Station Type Date Time Source
KSAC METAR 2018/12/17 17:53 UTC NOAA

KSAC 171753Z 15006KT 10SM SCT020 12/10 A3022 RMK AO2 SLP232 60000 T01220100 10122 20100 53015


Station Type Date Time Source
KSAC Decoded METAR 2018/12/17 17:53 UTC NOAA

SACRAMENTO EXECUTIVE AIRPORT , CA, United States (KSAC) 38-30N 121-30W 11M
Dec 17, 2018 - 12:53 PM EST / 2018.12.17 1753 UTC
Wind: from the SSE (150 degrees) at 7 MPH (6 KT):0
Visibility: 10 mile(s):0
Sky conditions: partly cloudy
Temperature: 54.0 F (12.2 C)
Dew Point: 50.0 F (10.0 C)
Relative Humidity: 86%
Pressure (altimeter): 30.22 in. Hg (1023 hPa)
Pressure tendency: 0.04 inches (1.5 hPa) higher than three hours ago
ob: KSAC 171753Z 15006KT 10SM SCT020 12/10 A3022 RMK AO2 SLP232 60000 T01220100 10122 20100 53015
cycle: 18

Station Type Date Time Source
KSAC TAF 2018/12/17 18:03 UTC NOAA

TAF KSAC 171801Z 1718/1818 12004KT P6SM SCT020
FM180600 VRB03KT 4SM BR BKN100
FM181300 VRB03KT 1/4SM FG OVC001


Example: see airport list